Time;durP1;ratioP1;P1;durP2;ratioP2;P2;SDS_P1;SDS_P2;PMS_P1;PMS_P2;Temp;Humidity;BMP_temperature;BMP_pressure;BME280_temperature;BME280_humidity;BME280_pressure;Samples;Min_cycle;Max_cycle;Signal;HPM_P1;HPM_P2
2023/07/06 00:00:55;;;;;;;2.70;1.27;;;17.50;99.90;;;;;;5076712;28;20488;-75
2023/07/06 00:03:23;;;;;;;2.05;1.20;;;17.50;99.90;;;;;;5076952;28;20021;-74
2023/07/06 00:05:49;;;;;;;2.73;1.10;;;17.40;99.90;;;;;;5077018;28;20084;-75
2023/07/06 00:08:18;;;;;;;4.43;1.20;;;17.30;99.90;;;;;;5076856;28;20040;-75
2023/07/06 00:10:44;;;;;;;;;;;17.10;99.90;;;;;;5059538;28;20024;-76
2023/07/06 00:13:11;;;;;;;3.03;1.10;;;17.10;99.90;;;;;;5077121;28;20360;-75
2023/07/06 00:15:37;;;;;;;1.25;0.90;;;17.00;99.90;;;;;;5076742;28;20050;-75
2023/07/06 00:18:04;;;;;;;5.03;1.10;;;17.00;99.90;;;;;;5058785;28;20032;-75
2023/07/06 00:20:32;;;;;;;1.77;1.38;;;16.90;99.90;;;;;;5076993;28;20058;-75
2023/07/06 00:22:58;;;;;;;4.57;1.25;;;16.90;99.90;;;;;;5058645;28;20031;-75
2023/07/06 00:25:25;;;;;;;3.60;1.02;;;16.90;99.90;;;;;;5058627;28;20029;-75
2023/07/06 00:27:53;;;;;;;4.25;1.38;;;16.90;99.90;;;;;;5058660;28;20102;-76
2023/07/06 00:30:30;;;;;;;2.15;1.40;;;16.90;99.90;;;;;;5076658;28;20023;-75
2023/07/06 00:32:56;;;;;;;2.28;1.10;;;17.00;99.90;;;;;;5058503;28;20024;-75
2023/07/06 00:35:22;;;;;;;4.53;2.25;;;17.00;99.90;;;;;;5058392;28;20388;-75
2023/07/06 00:37:51;;;;;;;4.18;1.38;;;17.00;99.90;;;;;;5058464;28;20369;-75
2023/07/06 00:40:17;;;;;;;2.00;1.20;;;17.00;99.90;;;;;;5058360;28;20119;-75
2023/07/06 00:42:42;;;;;;;3.88;1.15;;;17.00;99.90;;;;;;5058297;28;20233;-75
2023/07/06 00:45:09;;;;;;;0.98;0.93;;;17.00;99.90;;;;;;5076210;28;20032;-75
2023/07/06 00:47:49;;;;;;;4.35;1.20;;;17.00;99.90;;;;;;5058115;28;20495;-75
2023/07/06 00:50:20;;;;;;;2.78;0.98;;;16.90;99.90;;;;;;5062535;28;20135;-75
2023/07/06 00:52:54;;;;;;;1.40;0.90;;;17.00;99.90;;;;;;5095255;28;20443;-75
2023/07/06 00:55:25;;;;;;;2.15;1.30;;;17.00;99.90;;;;;;5095390;28;20024;-75
2023/07/06 00:57:55;;;;;;;2.03;1.10;;;17.00;99.90;;;;;;5095082;28;20068;-76
2023/07/06 01:00:21;;;;;;;2.40;1.42;;;17.00;99.90;;;;;;5095769;28;20126;-75
2023/07/06 01:02:53;;;;;;;2.03;1.45;;;17.00;99.90;;;;;;5096169;28;20017;-75
2023/07/06 01:05:23;;;;;;;1.52;1.10;;;17.00;99.90;;;;;;5094894;28;20023;-75
2023/07/06 01:07:51;;;;;;;2.55;1.05;;;17.00;99.90;;;;;;5094843;28;20164;-75
2023/07/06 01:10:18;;;;;;;2.50;1.17;;;17.00;99.90;;;;;;5094678;28;20025;-76
2023/07/06 01:12:43;;;;;;;1.88;1.02;;;16.90;99.90;;;;;;5094680;28;20035;-76
2023/07/06 01:15:09;;;;;;;2.08;0.88;;;16.90;99.90;;;;;;5095948;28;20028;-76
2023/07/06 01:17:53;;;;;;;1.38;0.80;;;16.90;99.90;;;;;;5095595;28;20396;-76
2023/07/06 01:20:41;;;;;;;3.03;1.08;;;16.80;99.90;;;;;;5095811;28;20016;-75
2023/07/06 01:23:37;;;;;;;3.90;1.05;;;16.80;99.90;;;;;;5095775;28;20028;-76
2023/07/06 01:26:30;;;;;;;2.25;1.10;;;16.70;99.90;;;;;;5094077;28;20028;-76
2023/07/06 01:29:17;;;;;;;3.53;0.90;;;16.70;99.90;;;;;;5095795;28;20039;-76
2023/07/06 01:31:50;;;;;;;2.03;0.88;;;16.60;99.90;;;;;;5094446;28;20028;-76
2023/07/06 01:34:29;;;;;;;2.40;1.30;;;16.60;99.90;;;;;;5095984;28;20475;-76
2023/07/06 01:37:15;;;;;;;5.25;1.25;;;16.70;99.90;;;;;;5095527;28;20468;-76
2023/07/06 01:39:41;;;;;;;5.53;1.02;;;16.60;99.90;;;;;;5094365;28;20028;-76
2023/07/06 01:42:10;;;;;;;3.72;1.83;;;16.60;99.90;;;;;;5095415;28;20031;-76
2023/07/06 01:44:37;;;;;;;2.58;1.40;;;16.60;99.90;;;;;;5094238;28;20026;-76
2023/07/06 01:47:03;;;;;;;5.18;1.33;;;16.60;99.90;;;;;;5095432;28;20125;-76
2023/07/06 01:49:30;;;;;;;4.35;1.25;;;16.60;99.90;;;;;;5095246;28;20039;-77
2023/07/06 01:52:11;;;;;;;3.67;0.98;;;16.50;99.90;;;;;;5094072;28;20083;-76
2023/07/06 01:55:09;;;;;;;2.08;1.23;;;16.50;99.90;;;;;;5094212;28;20058;-76
2023/07/06 01:57:59;;;;;;;7.20;1.15;;;16.50;99.90;;;;;;5082353;28;20074;-76
2023/07/06 02:00:27;;;;;;;1.75;1.33;;;16.40;99.90;;;;;;5093857;28;20024;-76
2023/07/06 02:02:54;;;;;;;1.60;1.10;;;16.40;99.90;;;;;;5095094;28;20024;-76
2023/07/06 02:05:21;;;;;;;1.48;1.02;;;16.40;99.90;;;;;;5093956;28;20051;-77
2023/07/06 02:07:49;;;;;;;2.10;1.23;;;16.40;99.90;;;;;;5094513;28;20080;-76
2023/07/06 02:10:17;;;;;;;2.47;1.30;;;16.30;99.90;;;;;;5095023;28;20128;-76
2023/07/06 02:12:47;;;;;;;2.92;1.20;;;16.30;99.90;;;;;;5094865;28;20074;-76
2023/07/06 02:15:16;;;;;;;2.38;1.30;;;16.30;99.90;;;;;;5094746;28;20111;-76
2023/07/06 02:17:43;;;;;;;1.50;1.05;;;16.30;99.90;;;;;;5095032;28;20043;-76
2023/07/06 02:20:10;;;;;;;5.65;1.08;;;16.20;99.90;;;;;;5094829;28;20024;-76
2023/07/06 02:22:36;;;;;;;3.35;1.20;;;16.20;99.90;;;;;;5095118;28;20072;-76
2023/07/06 02:25:02;;;;;;;2.85;1.40;;;16.20;99.90;;;;;;5093649;28;20115;-76
2023/07/06 02:27:27;;;;;;;3.35;1.40;;;16.20;99.90;;;;;;5094615;28;20035;-77
2023/07/06 02:29:53;;;;;;;4.28;1.55;;;16.30;99.90;;;;;;5094681;28;20034;-77
2023/07/06 02:32:18;;;;;;;3.70;1.50;;;16.20;99.90;;;;;;5093210;28;20118;-76
2023/07/06 02:34:45;;;;;;;7.10;1.17;;;16.20;99.90;;;;;;5093565;28;20456;-76
2023/07/06 02:37:11;;;;;;;6.97;1.40;;;16.20;99.90;;;;;;5093821;28;20062;-76
2023/07/06 02:39:36;;;;;;;3.40;1.35;;;16.10;99.90;;;;;;5093039;28;20024;-76
2023/07/06 02:42:03;;;;;;;4.45;1.23;;;16.10;99.90;;;;;;5093086;28;20028;-76
2023/07/06 02:44:28;;;;;;;3.33;1.30;;;16.10;99.90;;;;;;5094540;28;20103;-76
2023/07/06 02:46:54;;;;;;;5.60;1.73;;;16.00;99.90;;;;;;5092913;28;20139;-76
2023/07/06 02:49:20;;;;;;;3.58;1.40;;;16.00;99.90;;;;;;5092934;28;20028;-77
2023/07/06 02:51:46;;;;;;;3.67;1.70;;;16.00;99.90;;;;;;5078345;28;20094;-76
2023/07/06 02:54:15;;;;;;;2.20;1.30;;;16.00;99.90;;;;;;5056085;28;20472;-76
2023/07/06 02:56:41;;;;;;;4.43;1.48;;;16.00;99.90;;;;;;5055858;28;20476;-77
2023/07/06 02:59:08;;;;;;;6.68;1.50;;;16.00;99.90;;;;;;5073838;28;20036;-76
2023/07/06 03:01:35;;;;;;;4.72;1.58;;;15.90;99.90;;;;;;5055829;28;20021;-76
2023/07/06 03:04:01;;;;;;;3.95;1.50;;;15.90;99.90;;;;;;5055926;28;20407;-76
2023/07/06 03:06:27;;;;;;;2.92;1.40;;;16.00;99.90;;;;;;5073351;28;20059;-76
2023/07/06 03:08:54;;;;;;;2.85;1.52;;;15.90;99.90;;;;;;5055788;28;20353;-77
2023/07/06 03:11:20;;;;;;;2.63;1.80;;;15.90;99.90;;;;;;5074038;28;20142;-77
2023/07/06 03:13:45;;;;;;;2.33;1.45;;;15.90;99.90;;;;;;5078369;28;20538;-77
2023/07/06 03:16:11;;;;;;;4.03;1.55;;;15.90;99.90;;;;;;5062517;28;20079;-77
2023/07/06 03:18:37;;;;;;;8.07;2.10;;;15.90;99.90;;;;;;5080084;28;20095;-77
2023/07/06 03:21:02;;;;;;;3.25;1.45;;;15.90;99.90;;;;;;5062336;28;20481;-77
2023/07/06 03:23:29;;;;;;;4.57;1.60;;;15.90;99.90;;;;;;5062459;28;20024;-77
2023/07/06 03:25:55;;;;;;;3.03;1.55;;;15.90;99.90;;;;;;5062392;28;20476;-77
2023/07/06 03:28:23;;;;;;;1.73;1.45;;;15.90;99.90;;;;;;5080209;28;20032;-77
2023/07/06 03:30:56;;;;;;;3.22;1.13;;;15.90;99.90;;;;;;5062294;28;20396;-77
2023/07/06 03:33:24;;;;;;;2.60;1.52;;;15.90;99.90;;;;;;5080375;28;20024;-77
2023/07/06 03:35:53;;;;;;;5.10;2.00;;;15.90;99.90;;;;;;5080163;28;20082;-76
2023/07/06 03:38:19;;;;;;;5.18;2.50;;;;;;;;;;5080168;28;20025;-76
2023/07/06 03:40:49;;;;;;;1.63;1.45;;;15.90;99.90;;;;;;5079876;28;20381;-76
2023/07/06 03:43:16;;;;;;;5.18;2.10;;;15.90;99.90;;;;;;5080927;28;20472;-76
2023/07/06 03:45:42;;;;;;;2.97;1.85;;;15.80;99.90;;;;;;5080191;28;20031;-76
2023/07/06 03:48:08;;;;;;;2.75;1.63;;;15.90;99.90;;;;;;5062153;28;20479;-76
2023/07/06 03:50:34;;;;;;;3.38;1.70;;;15.90;99.90;;;;;;5080117;28;20151;-77
2023/07/06 03:53:00;;;;;;;4.15;1.38;;;15.90;99.90;;;;;;5080210;28;20024;-77
2023/07/06 03:55:26;;;;;;;3.13;1.52;;;15.90;99.90;;;;;;5080104;28;20481;-77
2023/07/06 03:57:52;;;;;;;6.20;1.83;;;15.90;99.90;;;;;;5079773;28;20058;-77
2023/07/06 04:00:22;;;;;;;2.33;1.45;;;15.90;99.90;;;;;;5080275;28;20028;-77
2023/07/06 04:02:52;;;;;;;2.45;1.40;;;16.00;99.90;;;;;;5061715;28;20052;-77
2023/07/06 04:05:24;;;;;;;2.72;1.50;;;16.00;99.90;;;;;;5061531;28;20103;-77
2023/07/06 04:07:52;;;;;;;2.22;1.65;;;16.00;99.90;;;;;;5080133;28;20044;-76
2023/07/06 04:10:22;;;;;;;4.63;2.20;;;16.10;99.90;;;;;;5061832;28;20078;-76
2023/07/06 04:12:49;;;;;;;3.80;1.55;;;16.10;99.90;;;;;;5079897;28;20028;-76
2023/07/06 04:15:17;;;;;;;1.75;1.50;;;16.10;99.90;;;;;;5079506;28;20063;-75
2023/07/06 04:17:44;;;;;;;7.25;1.95;;;16.10;99.90;;;;;;5061752;28;20564;-73
2023/07/06 04:20:18;;;;;;;2.45;1.70;;;16.10;99.90;;;;;;5080010;28;20025;-74
2023/07/06 04:22:48;;;;;;;5.40;1.73;;;16.20;99.90;;;;;;5061699;28;20070;-75
2023/07/06 04:25:15;;;;;;;3.83;1.10;;;16.20;99.90;;;;;;5076280;28;20519;-75
2023/07/06 04:27:42;;;;;;;3.60;1.95;;;16.30;99.90;;;;;;5076419;28;20032;-75
2023/07/06 04:30:11;;;;;;;2.35;1.60;;;16.30;99.90;;;;;;5076364;28;20029;-74
2023/07/06 04:32:36;;;;;;;3.67;1.73;;;16.30;99.90;;;;;;5076328;28;20025;-75
2023/07/06 04:35:03;;;;;;;2.28;1.40;;;16.40;99.90;;;;;;5076459;28;20040;-75
2023/07/06 04:37:31;;;;;;;3.90;1.25;;;16.40;99.90;;;;;;5058326;28;20036;-75
2023/07/06 04:39:57;;;;;;;4.80;1.60;;;16.50;99.90;;;;;;5076289;28;20047;-72
2023/07/06 04:42:27;;;;;;;4.72;1.38;;;16.60;99.90;;;;;;5058213;28;20362;-75
2023/07/06 04:44:56;;;;;;;3.95;1.75;;;16.60;99.90;;;;;;5058655;28;20060;-75
2023/07/06 04:47:23;;;;;;;2.20;1.33;;;16.70;99.90;;;;;;5076036;28;20121;-75
2023/07/06 04:49:50;;;;;;;5.72;1.95;;;16.70;99.90;;;;;;5057801;28;20067;-75
2023/07/06 04:52:16;;;;;;;3.78;1.80;;;16.70;99.90;;;;;;5058433;28;20387;-75
2023/07/06 04:54:41;;;;;;;4.05;1.75;;;16.80;99.90;;;;;;5075948;28;20468;-75
2023/07/06 04:57:09;;;;;;;4.63;1.58;;;16.80;99.90;;;;;;5058017;28;20063;-75
2023/07/06 04:59:35;;;;;;;2.92;1.50;;;16.90;99.90;;;;;;5057512;28;20024;-75
2023/07/06 05:02:02;;;;;;;1.98;1.10;;;17.00;99.90;;;;;;5076090;28;20074;-75
2023/07/06 05:04:28;;;;;;;3.85;1.45;;;17.00;99.90;;;;;;5075846;28;20020;-75
2023/07/06 05:06:55;;;;;;;3.13;1.20;;;17.10;99.90;;;;;;5075820;28;20089;-75
2023/07/06 05:09:21;;;;;;;2.40;1.00;;;17.10;99.90;;;;;;5075291;28;20098;-75
2023/07/06 05:11:47;;;;;;;3.92;1.33;;;17.10;99.90;;;;;;5057650;28;20020;-76
2023/07/06 05:14:12;;;;;;;2.13;1.00;;;17.20;99.90;;;;;;5075497;28;20519;-79
2023/07/06 05:16:39;;;;;;;2.50;2.10;;;17.20;99.90;;;;;;5075179;28;20396;-64
2023/07/06 05:19:05;;;;;;;2.20;1.13;;;17.20;99.90;;;;;;5075507;28;20021;-64
2023/07/06 05:21:33;;;;;;;1.33;1.00;;;17.30;99.90;;;;;;5075407;28;20445;-64
2023/07/06 05:23:58;;;;;;;2.15;1.20;;;17.40;99.90;;;;;;5075485;28;20028;-62
2023/07/06 05:26:24;;;;;;;1.10;0.98;;;17.50;99.90;;;;;;5074979;28;20029;-65
2023/07/06 05:28:50;;;;;;;5.05;1.20;;;17.60;99.90;;;;;;5075659;28;20036;-63
2023/07/06 05:31:16;;;;;;;1.98;1.15;;;17.70;99.90;;;;;;5074883;28;20529;-69
2023/07/06 05:33:42;;;;;;;2.83;1.08;;;17.80;99.90;;;;;;5057138;28;20028;-69
2023/07/06 05:36:07;;;;;;;4.90;1.70;;;17.90;99.90;;;;;;5074718;28;20032;-69
2023/07/06 05:38:33;;;;;;;3.42;1.08;;;17.90;99.90;;;;;;5075055;28;20085;-66
2023/07/06 05:41:02;;;;;;;2.50;1.00;;;17.90;99.90;;;;;;5074647;28;20020;-69
2023/07/06 05:43:28;;;;;;;2.10;1.10;;;18.00;99.90;;;;;;5075101;28;20029;-69
2023/07/06 05:45:54;;;;;;;3.75;1.45;;;18.00;99.90;;;;;;5075177;28;20035;-68
2023/07/06 05:48:20;;;;;;;2.05;1.05;;;18.10;99.90;;;;;;5074828;28;20181;-68
2023/07/06 05:50:46;;;;;;;3.47;1.42;;;18.20;99.90;;;;;;5074894;28;20130;-68
2023/07/06 05:53:12;;;;;;;2.65;1.00;;;18.30;99.90;;;;;;5056541;28;20373;-68
2023/07/06 05:55:40;;;;;;;4.03;1.10;;;18.40;99.90;;;;;;5074773;28;20032;-68
2023/07/06 05:58:06;;;;;;;3.03;1.10;;;18.60;99.90;;;;;;5074786;28;20055;-68
2023/07/06 06:00:36;;;;;;;2.20;0.90;;;18.90;99.90;;;;;;5074630;28;20032;-74
2023/07/06 06:03:02;;;;;;;1.95;1.13;;;19.00;99.90;;;;;;5074686;28;20021;-69
2023/07/06 06:05:29;;;;;;;2.13;0.82;;;19.20;99.90;;;;;;5074189;28;20435;-69
2023/07/06 06:07:55;;;;;;;1.23;1.13;;;19.40;99.90;;;;;;5056488;28;20119;-69
2023/07/06 06:10:22;;;;;;;5.53;2.42;;;19.70;99.90;;;;;;5075227;28;20424;-68
2023/07/06 06:12:48;;;;;;;5.22;1.05;;;19.80;99.90;;;;;;5056751;28;20025;-67
2023/07/06 06:15:15;;;;;;;2.90;1.02;;;19.80;99.90;;;;;;5074260;28;20093;-69
2023/07/06 06:17:40;;;;;;;4.05;1.70;;;19.70;99.90;;;;;;5074296;28;20021;-70
2023/07/06 06:20:08;;;;;;;1.38;1.02;;;19.70;99.90;;;;;;5074037;28;20361;-64
2023/07/06 06:22:34;;;;;;;2.28;1.30;;;19.80;99.90;;;;;;5074155;28;20047;-63
2023/07/06 06:25:01;;;;;;;1.67;1.27;;;20.00;99.90;;;;;;5074382;28;20396;-62
2023/07/06 06:27:26;;;;;;;2.70;1.10;;;20.20;99.90;;;;;;5074230;28;20162;-63
2023/07/06 06:29:53;;;;;;;1.70;1.08;;;20.40;99.90;;;;;;5056109;28;20436;-63
2023/07/06 06:32:19;;;;;;;3.38;1.10;;;20.40;99.90;;;;;;5074035;28;20074;-63
2023/07/06 06:34:45;;;;;;;3.83;1.38;;;20.30;99.90;;;;;;5074008;28;20024;-64
2023/07/06 06:37:11;;;;;;;1.58;1.10;;;20.30;99.90;;;;;;5074194;28;20082;-63
2023/07/06 06:39:38;;;;;;;3.63;1.50;;;20.40;99.90;;;;;;5074286;28;20035;-63
2023/07/06 06:42:04;;;;;;;1.58;1.10;;;20.60;99.90;;;;;;5073938;28;20039;-64
2023/07/06 06:44:30;;;;;;;4.90;1.52;;;20.70;99.90;;;;;;5056115;28;20024;-63
2023/07/06 06:46:58;;;;;;;4.95;1.42;;;20.70;99.90;;;;;;5073689;28;20036;-63
2023/07/06 06:49:25;;;;;;;3.00;1.38;;;20.80;99.90;;;;;;5073370;28;20051;-63
2023/07/06 06:51:50;;;;;;;2.78;1.60;;;20.80;99.90;;;;;;5073580;28;20455;-63
2023/07/06 06:54:16;;;;;;;1.23;1.10;;;20.90;99.90;;;;;;5073768;28;20020;-63
2023/07/06 06:56:42;;;;;;;4.22;2.10;;;20.90;99.90;;;;;;5073480;28;20085;-63
2023/07/06 06:59:11;;;;;;;1.90;1.20;;;20.80;99.90;;;;;;5073731;28;20457;-63
2023/07/06 07:01:37;;;;;;;4.65;1.55;;;20.80;99.90;;;;;;5055653;28;20031;-64
2023/07/06 07:04:03;;;;;;;4.10;1.10;;;20.90;99.90;;;;;;5073670;28;20030;-64
2023/07/06 07:06:29;;;;;;;2.63;1.55;;;21.00;99.90;;;;;;5056102;28;20475;-64
2023/07/06 07:08:57;;;;;;;2.38;1.50;;;21.00;99.90;;;;;;5055635;28;20586;-64
2023/07/06 07:11:22;;;;;;;7.33;1.70;;;21.00;99.90;;;;;;5073631;28;20052;-64
2023/07/06 07:13:48;;;;;;;3.53;1.55;;;21.00;99.90;;;;;;5055608;28;20112;-64
2023/07/06 07:16:15;;;;;;;2.97;1.75;;;21.10;99.90;;;;;;5073275;28;20113;-64
2023/07/06 07:18:43;;;;;;;2.83;1.50;;;21.20;99.90;;;;;;5073515;28;20025;-64
2023/07/06 07:21:10;;;;;;;3.00;2.07;;;21.50;99.90;;;;;;5073564;28;20021;-64
2023/07/06 07:23:41;;;;;;;2.55;1.58;;;21.70;99.90;;;;;;5073513;28;20035;-64
2023/07/06 07:26:13;;;;;;;4.07;1.75;;;21.70;99.90;;;;;;5073792;28;20044;-64
2023/07/06 07:28:42;;;;;;;1.75;1.65;;;21.70;99.90;;;;;;5055463;28;20033;-64
2023/07/06 07:31:11;;;;;;;3.05;1.67;;;21.70;99.90;;;;;;5073584;28;20028;-63
2023/07/06 07:33:37;;;;;;;3.88;1.90;;;21.60;99.90;;;;;;5055423;28;20021;-64
2023/07/06 07:36:04;;;;;;;5.85;1.85;;;21.50;99.90;;;;;;5073720;28;20384;-64
2023/07/06 07:38:30;;;;;;;4.40;1.95;;;21.50;99.90;;;;;;5073110;28;20069;-64
2023/07/06 07:41:07;;;;;;;4.35;2.30;;;21.70;99.90;;;;;;5073347;28;20058;-64
2023/07/06 07:43:36;;;;;;;3.20;2.13;;;21.90;99.90;;;;;;5073437;28;20529;-64
2023/07/06 07:46:04;;;;;;;3.17;1.73;;;22.20;99.90;;;;;;5073529;28;20024;-64
2023/07/06 07:48:38;;;;;;;4.47;2.00;;;22.60;99.90;;;;;;5073200;28;20037;-63
2023/07/06 07:51:05;;;;;;;2.05;1.70;;;23.00;99.90;;;;;;5073352;28;20052;-64
2023/07/06 07:53:33;;;;;;;3.20;1.98;;;23.30;99.90;;;;;;5072981;28;20039;-64
2023/07/06 07:55:59;;;;;;;4.63;1.83;;;23.10;99.90;;;;;;5072903;28;20036;-64
2023/07/06 07:58:26;;;;;;;6.68;2.60;;;23.10;99.90;;;;;;5073173;28;20028;-64
2023/07/06 08:00:55;;;;;;;5.22;2.30;;;23.00;99.90;;;;;;5076788;28;20025;-64
2023/07/06 08:03:22;;;;;;;3.92;2.50;;;23.10;99.90;;;;;;5076863;28;20025;-64
2023/07/06 08:05:47;;;;;;;4.40;2.58;;;23.00;99.90;;;;;;5058953;28;20028;-64
2023/07/06 08:08:13;;;;;;;4.32;2.40;;;22.80;99.90;;;;;;5076707;28;20036;-64
2023/07/06 08:10:41;;;;;;;5.50;2.55;;;22.70;99.90;;;;;;5076733;28;20456;-63
2023/07/06 08:13:09;;;;;;;3.67;2.33;;;22.80;99.90;;;;;;5076724;28;20032;-64
2023/07/06 08:15:37;;;;;;;2.90;2.10;;;23.10;99.90;;;;;;5058693;28;20055;-63
2023/07/06 08:18:03;;;;;;;4.07;2.58;;;23.30;98.90;;;;;;5076275;28;20757;-63
2023/07/06 08:20:30;;;;;;;4.53;2.50;;;23.20;98.30;;;;;;5076229;28;20083;-63
2023/07/06 08:22:59;;;;;;;4.85;2.30;;;23.30;99.40;;;;;;5058543;28;20480;-64
2023/07/06 08:25:27;;;;;;;;;;;23.60;99.20;;;;;;5076606;28;20028;-62
2023/07/06 08:27:54;;;;;;;7.63;2.58;;;23.70;98.50;;;;;;5076485;28;19912;-64
2023/07/06 08:30:23;;;;;;;3.60;2.40;;;24.00;97.40;;;;;;5076093;28;20392;-64
2023/07/06 08:32:51;;;;;;;3.10;2.55;;;24.40;97.50;;;;;;5076318;28;20035;-64
2023/07/06 08:35:18;;;;;;;4.82;2.33;;;24.90;95.90;;;;;;5076038;28;20028;-64
2023/07/06 08:37:46;;;;;;;4.47;2.30;;;25.20;94.80;;;;;;5058459;28;20068;-64
2023/07/06 08:40:17;;;;;;;;;;;25.80;94.70;;;;;;5058421;28;20067;-65
2023/07/06 08:42:47;;;;;;;4.95;2.30;;;26.50;92.70;;;;;;5076442;28;19905;-67
2023/07/06 08:45:19;;;;;;;5.75;2.90;;;26.80;90.90;;;;;;5076147;28;20024;-64
2023/07/06 08:47:46;;;;;;;3.88;2.92;;;26.80;90.20;;;;;;5076063;28;20025;-65
2023/07/06 08:50:12;;;;;;;4.78;2.58;;;26.50;90.00;;;;;;5075964;28;20131;-64
2023/07/06 08:52:39;;;;;;;4.75;2.33;;;26.50;90.10;;;;;;5076360;28;20024;-64
2023/07/06 08:55:12;;;;;;;7.07;2.33;;;26.80;89.00;;;;;;5058358;28;20190;-64
2023/07/06 08:57:38;;;;;;;7.28;2.60;;;27.00;85.40;;;;;;5076060;28;20028;-64
2023/07/06 09:00:09;;;;;;;3.17;2.40;;;27.10;86.00;;;;;;5057677;28;20043;-63
2023/07/06 09:02:36;;;;;;;5.85;2.80;;;27.10;85.60;;;;;;5076334;28;20025;-64
2023/07/06 09:05:12;;;;;;;4.05;2.38;;;26.70;85.80;;;;;;5057912;28;20029;-64
2023/07/06 09:07:42;;;;;;;2.72;2.30;;;26.40;86.70;;;;;;5075852;28;20068;-64
2023/07/06 09:10:20;;;;;;;3.50;2.20;;;26.00;86.10;;;;;;5075423;28;20027;-64
2023/07/06 09:12:46;;;;;;;4.78;2.85;;;25.70;85.60;;;;;;5075426;28;20028;-64
2023/07/06 09:15:16;;;;;;;2.55;2.25;;;25.80;85.10;;;;;;5075276;28;20029;-64
2023/07/06 09:17:52;;;;;;;7.95;2.88;;;25.80;85.10;;;;;;5075568;28;20113;-64
2023/07/06 09:20:21;;;;;;;3.58;2.53;;;25.90;84.50;;;;;;5075546;28;20491;-64
2023/07/06 09:22:48;;;;;;;2.88;2.47;;;26.00;82.20;;;;;;5074940;28;20464;-64
2023/07/06 09:25:19;;;;;;;4.03;2.40;;;26.00;82.30;;;;;;5075224;28;20036;-64
2023/07/06 09:27:49;;;;;;;5.43;3.05;;;26.10;82.00;;;;;;5075166;28;20094;-64
2023/07/06 09:30:29;;;;;;;3.50;3.05;;;26.50;82.20;;;;;;5075752;28;20024;-64
2023/07/06 09:33:13;;;;;;;4.78;3.15;;;26.80;79.80;;;;;;5075705;28;20054;-64
2023/07/06 09:35:39;;;;;;;3.95;2.80;;;27.10;76.70;;;;;;5075179;28;20107;-64
2023/07/06 09:38:08;;;;;;;3.83;2.70;;;27.60;78.20;;;;;;5075418;28;20044;-64
2023/07/06 09:40:33;;;;;;;5.85;2.72;;;28.00;72.90;;;;;;5051554;28;20260;-66
2023/07/06 09:42:59;;;;;;;4.72;2.95;;;28.10;70.60;;;;;;5035961;28;20029;-66
2023/07/06 09:45:27;;;;;;;3.28;2.70;;;28.20;68.60;;;;;;5035918;28;20025;-65
2023/07/06 09:48:01;;;;;;;3.30;2.55;;;28.10;66.70;;;;;;5036278;28;20471;-66
2023/07/06 09:50:39;;;;;;;5.97;2.33;;;28.20;66.50;;;;;;5034992;28;20053;-66
2023/07/06 09:53:07;;;;;;;3.72;2.80;;;28.20;67.10;;;;;;5034194;28;20422;-68
2023/07/06 09:55:33;;;;;;;4.07;2.67;;;28.20;63.50;;;;;;5053554;28;21242;-67
2023/07/06 09:58:00;;;;;;;4.40;2.35;;;28.20;62.50;;;;;;5053713;28;20045;-66
2023/07/06 10:00:50;;;;;;;5.03;3.22;;;28.10;62.30;;;;;;5036322;28;20770;-67
2023/07/06 10:03:42;;;;;;;3.90;2.75;;;28.20;61.60;;;;;;5042054;28;20025;-67
2023/07/06 10:06:11;;;;;;;6.13;2.63;;;28.40;62.60;;;;;;5044837;28;20021;-64
2023/07/06 10:08:40;;;;;;;;;;;28.90;63.30;;;;;;5054923;28;20033;-64
2023/07/06 10:12:06;;;;;;;3.55;2.65;;;29.30;53.80;;;;;;5054557;28;19990;-64
2023/07/06 10:14:44;;;;;;;4.28;2.60;;;30.00;54.00;;;;;;4963221;28;20055;-64
2023/07/06 10:17:35;;;;;;;7.07;3.00;;;30.40;55.40;;;;;;5054800;28;20023;-64
2023/07/06 10:20:10;;;;;;;11.57;2.70;;;31.00;53.50;;;;;;5036731;28;20033;-64
2023/07/06 10:22:53;;;;;;;3.60;2.70;;;31.20;52.90;;;;;;5053379;28;20025;-64
2023/07/06 10:25:25;;;;;;;5.72;3.00;;;31.50;49.80;;;;;;5054563;28;20453;-64
2023/07/06 10:28:03;;;;;;;3.10;2.30;;;31.30;50.50;;;;;;5036386;28;20150;-64
2023/07/06 10:30:35;;;;;;;2.75;2.40;;;30.90;49.10;;;;;;5054004;28;20473;-64
2023/07/06 10:33:06;;;;;;;3.97;2.85;;;30.30;49.70;;;;;;5054264;28;20407;-64
2023/07/06 10:35:48;;;;;;;4.90;2.92;;;29.60;54.10;;;;;;5054225;28;20021;-64
2023/07/06 10:38:14;;;;;;;6.13;2.58;;;29.50;52.50;;;;;;5036959;28;20272;-64
2023/07/06 10:40:40;;;;;;;4.05;3.00;;;29.10;51.10;;;;;;5054051;28;20095;-64
2023/07/06 10:43:08;;;;;;;4.65;2.67;;;29.20;51.60;;;;;;5054321;28;20116;-64
2023/07/06 10:45:35;;;;;;;6.47;2.47;;;29.30;52.20;;;;;;5036399;28;20368;-64
2023/07/06 10:48:13;;;;;;;7.45;2.55;;;29.50;50.70;;;;;;5036017;28;20029;-64
2023/07/06 10:50:51;;;;;;;4.25;2.80;;;29.70;52.00;;;;;;5053963;28;20063;-64
2023/07/06 10:53:18;;;;;;;3.22;2.72;;;29.80;52.80;;;;;;5053925;28;20052;-64
2023/07/06 10:56:04;;;;;;;3.13;2.53;;;29.80;52.60;;;;;;5053867;28;20021;-64
2023/07/06 10:58:33;;;;;;;4.32;2.67;;;29.50;52.30;;;;;;5053951;28;20464;-64
2023/07/06 11:01:07;;;;;;;4.13;2.83;;;29.30;54.10;;;;;;5053510;28;20103;-64
2023/07/06 11:03:33;;;;;;;3.88;2.50;;;29.50;53.00;;;;;;5053281;28;20064;-65
2023/07/06 11:06:29;;;;;;;4.30;2.28;;;30.10;52.60;;;;;;5053310;28;20056;-65
2023/07/06 11:09:10;;;;;;;3.35;2.70;;;30.50;51.30;;;;;;5014426;28;20139;-63
2023/07/06 11:12:03;;;;;;;2.92;2.60;;;30.60;49.10;;;;;;5053486;28;20100;-63
2023/07/06 11:14:31;;;;;;;6.28;2.60;;;29.90;49.40;;;;;;5053782;28;20021;-63
2023/07/06 11:17:00;;;;;;;;;;;30.10;50.00;;;;;;5053601;28;20510;-63
2023/07/06 11:20:12;;;;;;;4.35;2.42;;;30.00;49.20;;;;;;5053480;28;19905;-63
2023/07/06 11:22:40;;;;;;;4.10;2.83;;;30.30;49.80;;;;;;5000446;28;20029;-63
2023/07/06 11:25:12;;;;;;;3.63;2.40;;;30.90;47.20;;;;;;5053536;28;20025;-63
2023/07/06 11:27:43;;;;;;;2.75;2.55;;;31.30;45.40;;;;;;5035578;28;20033;-63
2023/07/06 11:30:26;;;;;;;2.75;2.53;;;31.30;46.00;;;;;;5054010;28;20025;-63
2023/07/06 11:32:55;;;;;;;3.53;2.45;;;31.20;45.90;;;;;;5053359;28;20025;-63
2023/07/06 11:35:42;;;;;;;2.92;2.33;;;31.30;45.40;;;;;;5038669;28;20082;-63
2023/07/06 11:38:13;;;;;;;5.22;2.40;;;31.10;45.30;;;;;;5057668;28;20029;-63
2023/07/06 11:41:05;;;;;;;3.80;2.40;;;31.60;44.40;;;;;;5057301;28;20025;-65
2023/07/06 11:43:43;;;;;;;5.53;2.10;;;32.30;44.20;;;;;;5057047;28;20453;-63
2023/07/06 11:46:23;;;;;;;3.05;2.58;;;32.80;42.20;;;;;;5039333;28;20025;-64
2023/07/06 11:48:49;;;;;;;2.88;2.30;;;32.80;43.50;;;;;;5057044;28;20446;-64
2023/07/06 11:51:19;;;;;;;2.78;2.58;;;32.70;41.80;;;;;;5056851;28;20106;-64
2023/07/06 11:53:54;;;;;;;3.25;2.55;;;33.10;43.00;;;;;;5039363;28;20389;-64
2023/07/06 11:56:39;;;;;;;4.18;2.47;;;32.90;42.00;;;;;;5057489;28;20114;-65
2023/07/06 11:59:15;;;;;;;2.33;2.22;;;33.20;43.60;;;;;;5057106;28;20021;-64
2023/07/06 12:01:57;;;;;;;2.53;2.00;;;33.20;40.00;;;;;;5056982;28;20069;-64
2023/07/06 12:04:26;;;;;;;2.30;2.15;;;32.80;40.70;;;;;;5056972;28;20094;-64
2023/07/06 12:06:53;;;;;;;2.38;2.17;;;32.50;42.20;;;;;;5056906;28;20029;-64
2023/07/06 12:09:22;;;;;;;2.20;2.00;;;32.50;43.50;;;;;;5056922;28;20021;-64
2023/07/06 12:12:05;;;;;;;2.97;2.70;;;32.10;42.30;;;;;;5067328;28;20025;-64
2023/07/06 12:14:34;;;;;;;3.05;2.40;;;31.90;42.90;;;;;;5056779;28;20025;-64
2023/07/06 12:17:01;;;;;;;3.97;2.38;;;31.50;42.90;;;;;;5056661;28;20048;-64
2023/07/06 12:19:28;;;;;;;2.53;2.33;;;31.20;43.30;;;;;;5056712;28;20036;-64
2023/07/06 12:21:55;;;;;;;2.38;2.17;;;31.30;43.00;;;;;;5056602;28;20035;-64
2023/07/06 12:24:26;;;;;;;2.65;2.45;;;31.80;42.50;;;;;;5056846;28;20029;-65
2023/07/06 12:27:03;;;;;;;4.43;2.30;;;31.80;41.60;;;;;;5056754;28;20037;-66
2023/07/06 12:29:31;;;;;;;3.20;2.53;;;31.90;42.10;;;;;;5056957;28;20488;-66
2023/07/06 12:32:13;;;;;;;3.88;2.40;;;31.60;42.30;;;;;;5056399;28;20040;-66
2023/07/06 12:34:41;;;;;;;2.90;2.70;;;32.30;42.40;;;;;;5057080;28;20067;-66
2023/07/06 12:37:16;;;;;;;2.92;2.30;;;32.60;41.40;;;;;;5038650;28;20037;-66
2023/07/06 12:39:44;;;;;;;3.22;2.60;;;32.70;41.50;;;;;;5056340;28;20091;-65
2023/07/06 12:42:16;;;;;;;2.90;2.35;;;32.20;41.80;;;;;;5056443;28;20025;-66
2023/07/06 12:44:43;;;;;;;4.20;2.25;;;32.20;41.30;;;;;;5056148;28;20056;-65
2023/07/06 12:47:24;;;;;;;2.25;2.05;;;32.50;41.60;;;;;;5037548;28;20036;-66
2023/07/06 12:49:52;;;;;;;8.57;2.40;;;32.40;40.50;;;;;;5056022;28;20021;-66
2023/07/06 12:52:23;;;;;;;2.90;2.08;;;33.10;40.30;;;;;;5037900;28;20029;-66
2023/07/06 12:54:52;;;;;;;2.50;2.30;;;33.60;41.10;;;;;;5038366;28;20354;-66
2023/07/06 12:57:28;;;;;;;2.45;2.30;;;33.20;40.40;;;;;;5055894;28;20051;-66
2023/07/06 13:00:10;;;;;;;3.75;2.13;;;33.00;40.80;;;;;;5069343;28;20028;-66
2023/07/06 13:02:37;;;;;;;3.45;2.40;;;33.30;42.00;;;;;;5075891;28;20035;-66